createdAt,value
2019-02-28T00:00:18.379Z,0
2019-02-28T00:01:19.938Z,0
2019-02-28T00:02:23.977Z,0
2019-02-28T00:03:20.192Z,0
2019-02-28T00:04:18.317Z,0
2019-02-28T00:05:18.311Z,0
2019-02-28T00:06:19.848Z,0
2019-02-28T00:07:22.528Z,0
2019-02-28T00:08:18.256Z,0
2019-02-28T00:09:18.003Z,0
2019-02-28T00:10:17.986Z,0
2019-02-28T00:11:17.974Z,0
2019-02-28T00:12:21.372Z,0
2019-02-28T00:13:21.103Z,0
2019-02-28T00:14:18.184Z,0
2019-02-28T00:15:18.205Z,0
2019-02-28T00:16:18.149Z,0
2019-02-28T00:17:17.897Z,0
2019-02-28T00:18:20.184Z,0
2019-02-28T00:19:17.871Z,0
2019-02-28T00:20:17.851Z,0
2019-02-28T00:21:18.087Z,0
2019-02-28T00:22:21.264Z,0
2019-02-28T00:23:19.145Z,0
2019-02-28T00:24:17.805Z,0
2019-02-28T00:25:18.053Z,0
2019-02-28T00:26:19.128Z,0
2019-02-28T00:27:23.516Z,0
2019-02-28T00:28:18.000Z,0
2019-02-28T00:29:17.981Z,0
2019-02-28T00:30:17.981Z,0
2019-02-28T00:31:21.774Z,0
2019-02-28T00:32:17.941Z,0
2019-02-28T00:33:17.925Z,0
2019-02-28T00:34:17.906Z,0
2019-02-28T00:35:21.097Z,0
2019-02-28T00:36:21.392Z,0
2019-02-28T00:37:17.881Z,0
2019-02-28T00:38:17.367Z,0
2019-02-28T00:39:17.597Z,0
2019-02-28T00:40:17.830Z,0
2019-02-28T00:41:17.817Z,0
2019-02-28T00:42:22.344Z,0
2019-02-28T00:43:17.791Z,0
2019-02-28T00:44:17.795Z,0
2019-02-28T00:45:17.787Z,0
2019-02-28T00:46:18.146Z,0
2019-02-28T00:47:18.900Z,0
2019-02-28T00:48:18.190Z,0
2019-02-28T00:49:17.506Z,0
2019-02-28T00:50:17.699Z,0
2019-02-28T00:51:17.678Z,0
2019-02-28T00:52:17.425Z,0
2019-02-28T00:53:17.648Z,0
2019-02-28T00:54:17.650Z,0
2019-02-28T00:55:19.473Z,0
2019-02-28T00:56:20.000Z,0
2019-02-28T00:57:17.605Z,0
2019-02-28T00:58:17.585Z,0
2019-02-28T00:59:17.584Z,0
2019-02-28T01:00:17.560Z,0
2019-02-28T01:01:18.449Z,0
2019-02-28T01:02:20.068Z,0
2019-02-28T01:03:17.516Z,0
2019-02-28T01:04:17.520Z,0
2019-02-28T01:05:17.499Z,0
2019-02-28T01:06:17.781Z,0
2019-02-28T01:07:20.523Z,0
2019-02-28T01:08:19.079Z,0
2019-02-28T01:09:17.438Z,0
2019-02-28T01:10:17.505Z,0
2019-02-28T01:11:20.071Z,0
2019-02-28T01:12:23.696Z,0
2019-02-28T01:13:17.387Z,0
2019-02-28T01:14:17.127Z,0
2019-02-28T01:15:17.919Z,0
2019-02-28T01:16:21.438Z,0
2019-02-28T01:17:17.330Z,0
2019-02-28T01:18:17.067Z,0
2019-02-28T01:19:17.434Z,0
2019-02-28T01:20:22.075Z,0
2019-02-28T01:21:17.279Z,0
2019-02-28T01:22:17.269Z,0
2019-02-28T01:23:17.254Z,0
2019-02-28T01:24:17.239Z,0
2019-02-28T01:25:17.219Z,0
2019-02-28T01:26:19.493Z,0
2019-02-28T01:27:22.993Z,0
2019-02-28T01:28:17.180Z,0
2019-02-28T01:29:17.319Z,0
2019-02-28T01:30:17.172Z,0
2019-02-28T01:31:18.821Z,0
2019-02-28T01:32:20.308Z,0
2019-02-28T01:33:17.115Z,0
2019-02-28T01:34:17.105Z,0
2019-02-28T01:35:16.594Z,0
2019-02-28T01:36:22.393Z,0
2019-02-28T01:37:17.058Z,0
2019-02-28T01:38:17.050Z,0
2019-02-28T01:39:17.041Z,0
2019-02-28T01:40:17.016Z,0
2019-02-28T01:41:18.435Z,0
2019-02-28T01:42:22.065Z,0
2019-02-28T01:43:16.978Z,0
2019-02-28T01:44:16.960Z,0
2019-02-28T01:45:18.139Z,0
2019-02-28T01:46:21.489Z,0
2019-02-28T01:47:19.861Z,0
2019-02-28T01:48:16.655Z,0
2019-02-28T01:49:16.645Z,0
2019-02-28T01:50:16.878Z,0
2019-02-28T01:51:16.865Z,0
2019-02-28T01:52:17.592Z,0
2019-02-28T01:53:21.144Z,0
2019-02-28T01:54:16.581Z,0
2019-02-28T01:55:16.809Z,0
2019-02-28T01:56:16.559Z,0
2019-02-28T01:57:17.178Z,0
2019-02-28T01:58:21.186Z,0
2019-02-28T01:59:16.759Z,0
2019-02-28T02:00:16.741Z,0
2019-02-28T02:01:16.549Z,0
2019-02-28T02:02:16.723Z,0
2019-02-28T02:03:17.323Z,0
2019-02-28T02:04:19.793Z,0
2019-02-28T02:05:19.393Z,0
2019-02-28T02:06:16.410Z,0
2019-02-28T02:07:16.642Z,0
2019-02-28T02:08:16.632Z,0
2019-02-28T02:09:18.855Z,0
2019-02-28T02:10:17.519Z,0
2019-02-28T02:11:16.336Z,0
2019-02-28T02:12:16.322Z,0
2019-02-28T02:13:16.323Z,0
2019-02-28T02:14:18.860Z,0
2019-02-28T02:15:19.327Z,0
2019-02-28T02:16:16.264Z,0
2019-02-28T02:17:16.271Z,0
2019-02-28T02:18:17.221Z,0
2019-02-28T02:19:22.402Z,0
2019-02-28T02:20:16.478Z,0
2019-02-28T02:21:16.208Z,0
2019-02-28T02:22:17.048Z,0
2019-02-28T02:23:20.425Z,0
2019-02-28T02:24:16.404Z,0
2019-02-28T02:25:16.405Z,0
2019-02-28T02:26:18.290Z,0
2019-02-28T02:27:21.559Z,0
2019-02-28T02:28:15.859Z,0
2019-02-28T02:29:16.095Z,0
2019-02-28T02:30:22.357Z,0
2019-02-28T02:31:16.094Z,0
2019-02-28T02:32:16.331Z,0
2019-02-28T02:33:21.251Z,0
2019-02-28T02:34:16.293Z,0
2019-02-28T02:35:16.282Z,0
2019-02-28T02:36:21.223Z,0
2019-02-28T02:37:16.239Z,0
2019-02-28T02:38:15.993Z,0
2019-02-28T02:39:21.240Z,0
2019-02-28T02:40:16.205Z,0
2019-02-28T02:41:16.200Z,0
2019-02-28T02:42:18.704Z,0
2019-02-28T02:43:16.156Z,0
2019-02-28T02:44:16.140Z,0
2019-02-28T02:45:16.132Z,0
2019-02-28T02:46:24.797Z,0
2019-02-28T02:47:16.102Z,0
2019-02-28T02:48:15.867Z,0
2019-02-28T02:49:23.682Z,0
2019-02-28T02:50:16.364Z,0
2019-02-28T02:51:19.368Z,0
2019-02-28T02:52:16.041Z,0
2019-02-28T02:53:16.019Z,0
2019-02-28T02:54:22.929Z,0
2019-02-28T02:55:16.004Z,0
2019-02-28T02:56:16.021Z,0
2019-02-28T02:57:18.919Z,0
2019-02-28T02:58:15.950Z,0
2019-02-28T02:59:15.949Z,0
2019-02-28T03:00:20.752Z,0
2019-02-28T03:01:15.913Z,0
2019-02-28T03:02:15.657Z,0
2019-02-28T03:03:15.895Z,0
2019-02-28T03:04:24.197Z,0
2019-02-28T03:05:15.870Z,0
2019-02-28T03:06:21.198Z,0
2019-02-28T03:07:22.883Z,0
2019-02-28T03:08:15.323Z,0
2019-02-28T03:09:17.603Z,0
2019-02-28T03:10:20.286Z,0
2019-02-28T03:11:15.813Z,0
2019-02-28T03:12:15.772Z,0
2019-02-28T03:13:15.501Z,0
2019-02-28T03:14:19.551Z,0
2019-02-28T03:15:15.725Z,0
2019-02-28T03:16:15.821Z,0
2019-02-28T03:17:18.998Z,0
2019-02-28T03:18:20.368Z,0
2019-02-28T03:19:15.674Z,0
2019-02-28T03:20:16.086Z,0
2019-02-28T03:21:20.131Z,0
2019-02-28T03:22:15.638Z,0
2019-02-28T03:23:15.373Z,0
2019-02-28T03:24:21.905Z,0
2019-02-28T03:25:15.600Z,0
2019-02-28T03:26:15.578Z,0
2019-02-28T03:27:21.176Z,0
2019-02-28T03:28:16.535Z,0
2019-02-28T03:29:16.194Z,0
2019-02-28T03:30:32.607Z,0
2019-02-28T03:31:21.859Z,0
2019-02-28T03:32:15.613Z,0
2019-02-28T03:33:31.188Z,0
2019-02-28T03:34:20.256Z,0
2019-02-28T03:35:15.480Z,0
2019-02-28T03:36:18.957Z,0
2019-02-28T03:37:15.186Z,0
2019-02-28T03:38:19.374Z,0
2019-02-28T03:39:15.402Z,0
2019-02-28T03:40:15.432Z,0
2019-02-28T03:41:23.565Z,0
2019-02-28T03:42:15.355Z,0
2019-02-28T03:43:15.344Z,0
2019-02-28T03:44:22.541Z,0
2019-02-28T03:45:15.330Z,0
2019-02-28T03:46:18.363Z,0
2019-02-28T03:47:22.444Z,0
2019-02-28T03:48:15.316Z,0
2019-02-28T03:49:19.363Z,0
2019-02-28T03:50:15.262Z,0
2019-02-28T03:51:15.249Z,0
2019-02-28T03:52:15.231Z,0
2019-02-28T03:53:22.155Z,0
2019-02-28T03:54:15.205Z,0
2019-02-28T03:55:15.191Z,0
2019-02-28T03:56:19.255Z,0
2019-02-28T03:57:15.180Z,0
2019-02-28T03:58:15.162Z,0
2019-02-28T03:59:20.963Z,0
2019-02-28T04:00:15.110Z,0
2019-02-28T04:01:17.248Z,0
2019-02-28T04:02:20.733Z,0
2019-02-28T04:03:14.832Z,0
2019-02-28T04:04:19.471Z,0
2019-02-28T04:05:14.958Z,0
2019-02-28T04:06:14.789Z,0
2019-02-28T04:07:20.548Z,0
2019-02-28T04:08:14.758Z,0
2019-02-28T04:09:16.236Z,0
2019-02-28T04:10:22.839Z,0
2019-02-28T04:11:14.724Z,0
2019-02-28T04:12:15.985Z,0
2019-02-28T04:13:19.118Z,0
2019-02-28T04:14:14.939Z,0
2019-02-28T04:15:17.436Z,0
2019-02-28T04:16:16.595Z,0
2019-02-28T04:17:14.878Z,0
2019-02-28T04:18:15.496Z,0
2019-02-28T04:19:21.039Z,0
2019-02-28T04:20:14.847Z,0
2019-02-28T04:21:17.365Z,0
2019-02-28T04:22:14.814Z,0
2019-02-28T04:23:14.793Z,0
2019-02-28T04:24:19.883Z,0
2019-02-28T04:25:14.785Z,0
2019-02-28T04:26:14.792Z,0
2019-02-28T04:27:14.794Z,0
2019-02-28T04:28:22.128Z,0
2019-02-28T04:29:14.475Z,0
2019-02-28T04:30:15.604Z,0
2019-02-28T04:31:21.480Z,0
2019-02-28T04:32:14.673Z,0
2019-02-28T04:33:14.688Z,0
2019-02-28T04:34:20.401Z,0
2019-02-28T04:35:14.651Z,0
2019-02-28T04:36:14.643Z,0
2019-02-28T04:37:16.597Z,0
2019-02-28T04:38:14.591Z,0
2019-02-28T04:39:14.574Z,0
2019-02-28T04:40:14.584Z,0
2019-02-28T04:41:14.552Z,0
2019-02-28T04:42:14.538Z,0
2019-02-28T04:43:17.260Z,0
2019-02-28T04:44:15.323Z,0
2019-02-28T04:45:14.496Z,0
2019-02-28T04:46:14.483Z,0
2019-02-28T04:47:14.776Z,0
2019-02-28T04:48:18.314Z,0
2019-02-28T04:49:14.443Z,0
2019-02-28T04:50:14.417Z,0
2019-02-28T04:51:14.405Z,0
2019-02-28T04:52:16.718Z,0
2019-02-28T04:53:14.377Z,0
2019-02-28T04:54:14.365Z,0
2019-02-28T04:55:14.360Z,0
2019-02-28T04:56:18.109Z,0
2019-02-28T04:57:14.320Z,0
2019-02-28T04:58:14.310Z,0
2019-02-28T04:59:14.048Z,0
2019-02-28T05:00:14.051Z,0
2019-02-28T05:01:19.102Z,0
2019-02-28T05:02:14.254Z,0
2019-02-28T05:03:14.239Z,0
2019-02-28T05:04:14.231Z,0
2019-02-28T05:05:19.426Z,0
2019-02-28T05:06:14.232Z,0
2019-02-28T05:07:13.939Z,0
2019-02-28T05:08:14.167Z,0
2019-02-28T05:09:18.908Z,0
2019-02-28T05:10:14.162Z,0
2019-02-28T05:11:14.130Z,0
2019-02-28T05:12:14.111Z,0
2019-02-28T05:13:17.256Z,0
2019-02-28T05:14:13.837Z,0
2019-02-28T05:15:14.077Z,0
2019-02-28T05:16:17.163Z,0
2019-02-28T05:17:13.794Z,0
2019-02-28T05:18:14.028Z,0
2019-02-28T05:19:14.014Z,0
2019-02-28T05:20:17.569Z,0
2019-02-28T05:21:16.463Z,0
2019-02-28T05:22:13.720Z,0
2019-02-28T05:23:13.962Z,0
2019-02-28T05:24:14.937Z,0
2019-02-28T05:25:20.240Z,0
2019-02-28T05:26:13.928Z,0
2019-02-28T05:27:13.654Z,0
2019-02-28T05:28:14.700Z,4
2019-02-28T05:29:16.849Z,0
2019-02-28T05:30:17.742Z,4
2019-02-28T05:31:13.842Z,4
2019-02-28T05:32:13.834Z,4
2019-02-28T05:33:14.607Z,4
2019-02-28T05:34:18.093Z,4
2019-02-28T05:35:13.801Z,8
2019-02-28T05:36:13.774Z,12
2019-02-28T05:37:19.411Z,12
2019-02-28T05:38:13.498Z,16
2019-02-28T05:39:13.732Z,20
2019-02-28T05:40:14.090Z,20
2019-02-28T05:41:17.238Z,28
2019-02-28T05:42:13.440Z,28
2019-02-28T05:43:13.420Z,36
2019-02-28T05:44:14.514Z,40
2019-02-28T05:45:17.273Z,48
2019-02-28T05:46:13.646Z,52
2019-02-28T05:47:13.617Z,64
2019-02-28T05:48:13.598Z,72
2019-02-28T05:49:15.997Z,80
2019-02-28T05:50:17.997Z,96
2019-02-28T05:51:13.558Z,104
2019-02-28T05:52:13.350Z,116
2019-02-28T05:53:17.022Z,132
2019-02-28T05:54:18.611Z,148
2019-02-28T05:55:13.251Z,164
2019-02-28T05:56:13.484Z,180
2019-02-28T05:57:15.950Z,196
2019-02-28T05:58:17.294Z,212
2019-02-28T05:59:13.200Z,236
2019-02-28T06:00:13.192Z,256
2019-02-28T06:01:18.769Z,276
2019-02-28T06:02:13.396Z,300
2019-02-28T06:03:13.381Z,320
2019-02-28T06:04:13.362Z,348
2019-02-28T06:05:18.619Z,372
2019-02-28T06:06:17.180Z,396
2019-02-28T06:07:14.222Z,420
2019-02-28T06:08:13.301Z,452
2019-02-28T06:09:17.782Z,476
2019-02-28T06:10:13.277Z,504
2019-02-28T06:11:15.218Z,532
2019-02-28T06:12:16.293Z,560
2019-02-28T06:13:15.265Z,588
2019-02-28T06:14:13.221Z,616
2019-02-28T06:15:12.949Z,644
2019-02-28T06:16:18.552Z,676
2019-02-28T06:17:13.167Z,700
2019-02-28T06:18:13.174Z,728
2019-02-28T06:19:16.039Z,760
2019-02-28T06:20:16.168Z,788
2019-02-28T06:21:15.063Z,820
2019-02-28T06:22:13.107Z,844
2019-02-28T06:23:16.074Z,876
2019-02-28T06:24:15.257Z,904
2019-02-28T06:25:13.079Z,932
2019-02-28T06:26:13.065Z,964
2019-02-28T06:27:14.494Z,992
2019-02-28T06:28:14.449Z,1016
2019-02-28T06:29:12.839Z,1044
2019-02-28T06:30:15.891Z,1068
2019-02-28T06:31:15.945Z,1096
2019-02-28T06:32:13.598Z,1124
2019-02-28T06:33:12.451Z,1152
2019-02-28T06:34:16.351Z,1176
2019-02-28T06:35:20.298Z,1196
2019-02-28T06:36:12.638Z,1224
2019-02-28T06:37:12.890Z,1256
2019-02-28T06:38:16.179Z,1280
2019-02-28T06:39:12.842Z,1296
2019-02-28T06:40:12.829Z,1320
2019-02-28T06:41:14.951Z,1340
2019-02-28T06:42:14.275Z,1364
2019-02-28T06:43:14.076Z,1388
2019-02-28T06:44:12.771Z,1412
2019-02-28T06:45:12.759Z,1428
2019-02-28T06:46:15.808Z,1440
2019-02-28T06:47:16.094Z,1456
2019-02-28T06:48:12.711Z,1472
2019-02-28T06:49:14.297Z,1492
2019-02-28T06:50:15.452Z,1508
2019-02-28T06:51:12.416Z,1524
2019-02-28T06:52:12.456Z,1544
2019-02-28T06:53:12.630Z,1568
2019-02-28T06:54:15.651Z,1596
2019-02-28T06:55:15.621Z,1612
2019-02-28T06:56:12.595Z,1612
2019-02-28T06:57:12.579Z,1612
2019-02-28T06:58:12.311Z,1628
2019-02-28T06:59:12.735Z,1648
2019-02-28T07:00:17.658Z,1656
2019-02-28T07:01:12.518Z,1672
2019-02-28T07:02:13.727Z,1688
2019-02-28T07:03:12.238Z,1704
2019-02-28T07:04:16.615Z,1724
2019-02-28T07:05:12.452Z,1752
2019-02-28T07:06:12.442Z,1780
2019-02-28T07:07:18.448Z,1788
2019-02-28T07:08:12.404Z,1800
2019-02-28T07:09:12.407Z,1820
2019-02-28T07:10:16.774Z,1840
2019-02-28T07:11:12.360Z,1860
2019-02-28T07:12:13.284Z,1876
2019-02-28T07:13:14.310Z,1884
2019-02-28T07:14:17.466Z,1892
2019-02-28T07:15:12.398Z,1908
2019-02-28T07:16:12.311Z,1924
2019-02-28T07:17:17.524Z,1940
2019-02-28T07:18:12.261Z,1948
2019-02-28T07:19:11.994Z,1960
2019-02-28T07:20:14.368Z,1980
2019-02-28T07:21:14.773Z,1996
2019-02-28T07:22:12.213Z,2020
2019-02-28T07:23:12.185Z,2036
2019-02-28T07:24:12.174Z,2044
2019-02-28T07:25:16.768Z,2044
2019-02-28T07:26:11.918Z,2044
2019-02-28T07:27:12.127Z,2040
2019-02-28T07:28:12.128Z,2056
2019-02-28T07:29:15.934Z,2068
2019-02-28T07:30:17.112Z,2084
2019-02-28T07:31:12.081Z,2092
2019-02-28T07:32:12.054Z,2104
2019-02-28T07:33:16.762Z,2112
2019-02-28T07:34:12.029Z,2124
2019-02-28T07:35:12.010Z,2144
2019-02-28T07:36:15.958Z,2148
2019-02-28T07:37:11.983Z,2160
2019-02-28T07:38:11.986Z,2176
2019-02-28T07:39:12.383Z,2184
2019-02-28T07:40:18.161Z,2196
2019-02-28T07:41:11.679Z,2204
2019-02-28T07:42:11.918Z,2220
2019-02-28T07:43:17.125Z,2232
2019-02-28T07:44:11.647Z,2244
2019-02-28T07:45:12.186Z,2252
2019-02-28T07:46:15.158Z,2268
2019-02-28T07:47:16.987Z,2280
2019-02-28T07:48:11.579Z,2280
2019-02-28T07:49:11.803Z,2288
2019-02-28T07:50:17.475Z,2300
2019-02-28T07:51:11.779Z,2312
2019-02-28T07:52:11.762Z,2320
2019-02-28T07:53:13.448Z,2308
2019-02-28T07:54:12.556Z,2288
2019-02-28T07:55:11.736Z,2272
2019-02-28T07:56:14.881Z,2264
2019-02-28T07:57:16.820Z,2264
2019-02-28T07:58:11.680Z,2264
2019-02-28T07:59:13.100Z,2276
2019-02-28T08:00:16.725Z,2296
2019-02-28T08:01:11.638Z,2312
2019-02-28T08:02:11.638Z,2316
2019-02-28T08:03:13.819Z,2324
2019-02-28T08:04:11.593Z,2340
2019-02-28T08:05:11.583Z,2348
2019-02-28T08:06:12.593Z,2372
2019-02-28T08:07:16.498Z,2380
2019-02-28T08:08:11.546Z,2408
2019-02-28T08:09:11.971Z,2432
2019-02-28T08:10:12.695Z,2428
2019-02-28T08:11:11.496Z,2448
2019-02-28T08:12:12.183Z,2496
2019-02-28T08:13:11.483Z,2528
2019-02-28T08:14:14.630Z,2548
2019-02-28T08:15:11.459Z,2556
2019-02-28T08:16:11.434Z,2648
2019-02-28T08:17:14.509Z,2668
2019-02-28T08:18:15.745Z,2624
2019-02-28T08:19:11.139Z,2604
2019-02-28T08:20:11.378Z,2628
2019-02-28T08:21:15.427Z,2652
2019-02-28T08:22:11.348Z,2684
2019-02-28T08:23:12.691Z,2680
2019-02-28T08:24:13.420Z,2664
2019-02-28T08:25:12.353Z,2708
2019-02-28T08:26:11.060Z,2780
2019-02-28T08:27:11.312Z,2836
2019-02-28T08:28:11.285Z,2796
2019-02-28T08:29:14.133Z,2804
2019-02-28T08:30:11.247Z,2808
2019-02-28T08:31:11.243Z,2804
2019-02-28T08:32:15.203Z,2816
2019-02-28T08:33:11.218Z,2788
2019-02-28T08:34:10.945Z,2764
2019-02-28T08:35:11.175Z,2792
2019-02-28T08:36:17.400Z,2820
2019-02-28T08:37:11.164Z,2844
2019-02-28T08:38:11.709Z,2836
2019-02-28T08:39:18.486Z,2856
2019-02-28T08:40:12.536Z,2832
2019-02-28T08:41:13.533Z,2852
2019-02-28T08:42:12.094Z,2840
2019-02-28T08:43:15.366Z,2876
2019-02-28T08:44:11.120Z,2904
2019-02-28T08:45:13.217Z,2916
2019-02-28T08:46:18.661Z,2880
2019-02-28T08:47:10.768Z,2840
2019-02-28T08:48:12.584Z,2852
2019-02-28T08:49:14.398Z,2848
2019-02-28T08:50:10.983Z,2836
2019-02-28T08:51:10.968Z,2852
2019-02-28T08:52:13.720Z,2896
2019-02-28T08:53:12.351Z,2904
2019-02-28T08:54:10.926Z,2880
2019-02-28T08:55:14.462Z,2828
2019-02-28T08:56:15.907Z,2784
2019-02-28T08:57:10.641Z,2760
2019-02-28T08:58:13.534Z,2740
2019-02-28T08:59:25.123Z,2748
2019-02-28T09:00:10.866Z,2744
2019-02-28T09:01:12.629Z,2744
2019-02-28T09:02:10.836Z,2756
2019-02-28T09:03:10.815Z,2780
2019-02-28T09:04:12.347Z,2824
2019-02-28T09:05:11.511Z,2844
2019-02-28T09:06:14.334Z,2844
2019-02-28T09:07:14.795Z,2824
2019-02-28T09:08:10.760Z,2840
2019-02-28T09:09:10.742Z,2872
2019-02-28T09:10:16.671Z,2896
2019-02-28T09:11:10.478Z,2868
2019-02-28T09:12:10.710Z,2852
2019-02-28T09:13:14.937Z,2840
2019-02-28T09:14:14.685Z,2856
2019-02-28T09:15:10.674Z,2832
2019-02-28T09:16:12.164Z,2824
2019-02-28T09:17:10.442Z,2808
2019-02-28T09:18:12.151Z,2808
2019-02-28T09:19:10.617Z,2796
2019-02-28T09:20:14.787Z,2808
2019-02-28T09:21:10.590Z,2824
2019-02-28T09:22:10.336Z,2852
2019-02-28T09:23:11.172Z,2848
2019-02-28T09:24:14.622Z,2860
2019-02-28T09:25:10.544Z,2868
2019-02-28T09:26:10.673Z,2872
2019-02-28T09:27:12.303Z,2868
2019-02-28T09:28:15.109Z,2844
2019-02-28T09:29:10.325Z,2868
2019-02-28T09:30:10.245Z,2876
2019-02-28T09:31:12.960Z,2876
2019-02-28T09:32:17.548Z,2884
2019-02-28T09:33:10.228Z,2888
2019-02-28T09:34:11.723Z,2904
2019-02-28T09:35:19.127Z,2924
2019-02-28T09:36:10.428Z,2928
2019-02-28T09:37:10.402Z,2928
2019-02-28T09:38:18.242Z,2900
2019-02-28T09:39:10.136Z,2944
2019-02-28T09:40:10.373Z,2928
2019-02-28T09:41:11.478Z,2916
2019-02-28T09:42:14.570Z,2936
2019-02-28T09:43:10.332Z,2940
2019-02-28T09:44:11.932Z,2944
2019-02-28T09:45:13.954Z,2924
2019-02-28T09:46:12.400Z,2920
2019-02-28T09:47:14.061Z,2920
2019-02-28T09:48:10.306Z,2936
2019-02-28T09:49:14.454Z,2980
2019-02-28T09:50:10.017Z,3024
2019-02-28T09:51:09.999Z,3020
2019-02-28T09:52:13.392Z,3012
2019-02-28T09:53:09.979Z,3024
2019-02-28T09:54:10.209Z,3016
2019-02-28T09:55:10.355Z,2980
2019-02-28T09:56:13.919Z,2948
2019-02-28T09:57:09.936Z,2944
2019-02-28T09:58:10.182Z,2972
2019-02-28T09:59:11.019Z,2952
2019-02-28T10:00:14.168Z,2932
2019-02-28T10:01:09.655Z,2924
2019-02-28T10:02:15.418Z,2948
2019-02-28T10:03:11.606Z,2964
2019-02-28T10:04:10.400Z,2988
2019-02-28T10:05:16.574Z,3048
2019-02-28T10:06:09.837Z,3072
2019-02-28T10:07:09.825Z,3092
2019-02-28T10:08:11.916Z,3092
2019-02-28T10:09:11.238Z,3096
2019-02-28T10:10:10.343Z,3092
2019-02-28T10:11:10.035Z,3068
2019-02-28T10:12:15.586Z,3036
2019-02-28T10:13:10.012Z,3008
2019-02-28T10:14:11.536Z,3008
2019-02-28T10:15:14.507Z,2980
2019-02-28T10:16:09.730Z,2996
2019-02-28T10:17:09.724Z,2984
2019-02-28T10:18:12.209Z,2964
2019-02-28T10:19:15.383Z,2952
2019-02-28T10:20:09.928Z,2924
2019-02-28T10:21:09.917Z,2924
2019-02-28T10:22:14.962Z,2916
2019-02-28T10:23:09.904Z,2932
2019-02-28T10:24:09.889Z,2932
2019-02-28T10:25:13.015Z,2904
2019-02-28T10:26:09.636Z,2920
2019-02-28T10:27:10.729Z,2948
2019-02-28T10:28:10.032Z,2940
2019-02-28T10:29:14.296Z,2944
2019-02-28T10:30:09.577Z,2940
2019-02-28T10:31:09.814Z,2924
2019-02-28T10:32:13.275Z,2892
2019-02-28T10:33:09.794Z,2912
2019-02-28T10:34:09.828Z,2940
2019-02-28T10:35:09.774Z,2940
2019-02-28T10:36:14.906Z,2944
2019-02-28T10:37:11.456Z,2956
2019-02-28T10:38:09.743Z,2956
2019-02-28T10:39:11.991Z,2960
2019-02-28T10:40:09.924Z,2948
2019-02-28T10:41:09.725Z,2944
2019-02-28T10:42:12.957Z,2944
2019-02-28T10:43:12.052Z,2940
2019-02-28T10:44:09.715Z,2932
2019-02-28T10:45:13.250Z,2916
2019-02-28T10:46:09.668Z,2892
2019-02-28T10:47:09.657Z,2884
2019-02-28T10:48:11.081Z,2904
2019-02-28T10:49:09.644Z,2872
2019-02-28T10:50:09.384Z,2880
2019-02-28T10:51:19.976Z,2884
2019-02-28T10:52:09.605Z,2888
2019-02-28T10:53:12.601Z,2872
2019-02-28T10:54:11.204Z,2852
2019-02-28T10:55:09.328Z,2836
2019-02-28T10:56:09.565Z,2836
2019-02-28T10:57:12.767Z,2840
2019-02-28T10:58:12.417Z,2864
2019-02-28T10:59:09.283Z,2876
2019-02-28T11:00:09.524Z,2876
2019-02-28T11:01:14.928Z,2892
2019-02-28T11:02:09.508Z,2900
2019-02-28T11:03:09.520Z,2900
2019-02-28T11:04:14.043Z,2916
2019-02-28T11:05:10.400Z,2912
2019-02-28T11:06:09.470Z,2896
2019-02-28T11:07:12.004Z,2904
2019-02-28T11:08:16.764Z,2896
2019-02-28T11:09:09.449Z,2892
2019-02-28T11:10:09.446Z,2916
2019-02-28T11:11:14.595Z,2916
2019-02-28T11:12:09.408Z,2888
2019-02-28T11:13:09.399Z,2896
2019-02-28T11:14:11.292Z,2888
2019-02-28T11:15:10.370Z,2880
2019-02-28T11:16:09.366Z,2880
2019-02-28T11:17:15.832Z,2880
2019-02-28T11:18:13.428Z,2908
2019-02-28T11:19:09.342Z,2920
2019-02-28T11:20:09.333Z,2940
2019-02-28T11:21:09.317Z,2960
2019-02-28T11:22:12.794Z,2988
2019-02-28T11:23:14.114Z,2992
2019-02-28T11:24:09.296Z,2972
2019-02-28T11:25:09.069Z,2972
2019-02-28T11:26:13.893Z,2964
2019-02-28T11:27:09.018Z,2948
2019-02-28T11:28:09.259Z,2944
2019-02-28T11:29:10.683Z,2932
2019-02-28T11:30:10.064Z,2920
2019-02-28T11:31:11.133Z,2912
2019-02-28T11:32:09.220Z,2916
2019-02-28T11:33:11.703Z,2900
2019-02-28T11:34:11.507Z,2888
2019-02-28T11:35:09.194Z,2896
2019-02-28T11:36:09.661Z,2920
2019-02-28T11:37:15.182Z,2920
2019-02-28T11:38:09.845Z,2924
2019-02-28T11:39:09.154Z,2944
2019-02-28T11:40:11.564Z,2944
2019-02-28T11:41:09.135Z,2932
2019-02-28T11:42:09.126Z,2932
2019-02-28T11:43:10.101Z,2928
2019-02-28T11:44:11.970Z,2932
2019-02-28T11:45:09.112Z,2932
2019-02-28T11:46:10.261Z,2928
2019-02-28T11:47:13.143Z,2936
2019-02-28T11:48:08.833Z,2940
2019-02-28T11:49:09.058Z,2932
2019-02-28T11:50:12.596Z,2972
2019-02-28T11:51:09.044Z,2992
2019-02-28T11:52:08.784Z,3004
2019-02-28T11:53:12.647Z,3008
2019-02-28T11:54:12.192Z,2984
2019-02-28T11:55:09.018Z,2960
2019-02-28T11:56:09.023Z,2936
2019-02-28T11:57:11.654Z,2896
2019-02-28T11:58:08.983Z,2868
2019-02-28T11:59:08.976Z,2848
2019-02-28T12:00:08.969Z,2872
2019-02-28T12:01:15.064Z,2948
2019-02-28T12:02:08.961Z,2988
2019-02-28T12:03:10.467Z,3072
2019-02-28T12:04:08.927Z,3152
2019-02-28T12:05:08.683Z,3196
2019-02-28T12:06:09.341Z,3252
2019-02-28T12:07:08.920Z,3304
2019-02-28T12:08:14.119Z,3384
2019-02-28T12:09:08.883Z,3404
2019-02-28T12:10:08.899Z,3428
2019-02-28T12:11:09.914Z,3460
2019-02-28T12:12:12.498Z,3472
2019-02-28T12:13:08.860Z,3460
2019-02-28T12:14:11.056Z,3412
2019-02-28T12:15:12.762Z,3380
2019-02-28T12:16:08.825Z,3368
2019-02-28T12:17:08.318Z,3372
2019-02-28T12:18:11.587Z,3384
2019-02-28T12:19:08.801Z,3408
2019-02-28T12:20:10.948Z,3448
2019-02-28T12:21:11.712Z,3488
2019-02-28T12:22:14.309Z,3500
2019-02-28T12:23:08.769Z,3448
2019-02-28T12:24:08.761Z,3356
2019-02-28T12:25:12.416Z,3336
2019-02-28T12:26:08.748Z,3348
2019-02-28T12:27:08.953Z,3340
2019-02-28T12:28:11.276Z,3340
2019-02-28T12:29:09.372Z,3336
2019-02-28T12:30:08.709Z,3356
2019-02-28T12:31:08.692Z,3396
2019-02-28T12:32:11.269Z,3452
2019-02-28T12:33:08.446Z,3520
2019-02-28T12:34:08.667Z,3588
2019-02-28T12:35:09.619Z,3640
2019-02-28T12:36:11.202Z,3636
2019-02-28T12:37:08.645Z,3604
2019-02-28T12:38:08.402Z,3560
2019-02-28T12:39:09.477Z,3524
2019-02-28T12:40:12.380Z,3452
2019-02-28T12:41:08.621Z,3388
2019-02-28T12:42:08.606Z,3392
2019-02-28T12:43:11.353Z,3388
2019-02-28T12:44:08.331Z,3380
2019-02-28T12:45:08.365Z,3448
2019-02-28T12:46:08.318Z,3624
2019-02-28T12:47:11.964Z,3788
2019-02-28T12:48:08.588Z,3848
2019-02-28T12:49:08.539Z,3788
2019-02-28T12:50:08.561Z,3740
2019-02-28T12:51:12.040Z,3644
2019-02-28T12:52:11.220Z,3680
2019-02-28T12:53:08.258Z,3684
2019-02-28T12:54:08.500Z,3828
2019-02-28T12:55:11.331Z,3984
2019-02-28T12:56:11.187Z,4144
2019-02-28T12:57:08.466Z,4256
2019-02-28T12:58:08.456Z,4408
2019-02-28T12:59:09.895Z,4608
2019-02-28T13:00:08.458Z,4816
2019-02-28T13:01:08.487Z,4988
2019-02-28T13:02:12.324Z,5084
2019-02-28T13:03:09.208Z,5140
2019-02-28T13:04:08.429Z,5220
2019-02-28T13:05:14.751Z,5304
2019-02-28T13:06:08.395Z,5420
2019-02-28T13:07:08.379Z,5536
2019-02-28T13:08:10.654Z,5576
2019-02-28T13:09:08.388Z,5596
2019-02-28T13:10:08.863Z,5636
2019-02-28T13:11:11.729Z,5644
2019-02-28T13:12:12.100Z,5632
2019-02-28T13:13:13.754Z,5612
2019-02-28T13:14:12.341Z,5620
2019-02-28T13:15:08.511Z,5600
2019-02-28T13:16:08.051Z,5568
2019-02-28T13:17:08.045Z,5540
2019-02-28T13:18:14.905Z,5396
2019-02-28T13:19:08.281Z,5320
2019-02-28T13:20:08.034Z,5296
2019-02-28T13:21:14.813Z,5204
2019-02-28T13:22:08.296Z,5208
2019-02-28T13:23:08.438Z,5136
2019-02-28T13:24:13.952Z,5044
2019-02-28T13:25:08.225Z,4980
2019-02-28T13:26:08.212Z,4840
2019-02-28T13:27:12.303Z,4808
2019-02-28T13:28:07.981Z,4728
2019-02-28T13:29:09.990Z,4592
2019-02-28T13:30:13.902Z,4520
2019-02-28T13:31:08.196Z,4360
2019-02-28T13:32:09.326Z,4316
2019-02-28T13:33:10.892Z,4300
2019-02-28T13:34:08.356Z,4260
2019-02-28T13:35:14.120Z,4312
2019-02-28T13:36:08.162Z,4340
2019-02-28T13:37:10.358Z,4216
2019-02-28T13:38:08.128Z,4236
2019-02-28T13:39:08.107Z,4200
2019-02-28T13:40:13.848Z,4104
2019-02-28T13:41:07.876Z,4100
2019-02-28T13:42:11.205Z,4056
2019-02-28T13:43:09.048Z,4020
2019-02-28T13:44:08.080Z,4008
2019-02-28T13:45:21.511Z,3980
2019-02-28T13:46:08.062Z,3944
2019-02-28T13:47:14.346Z,3884
2019-02-28T13:48:09.839Z,3816
2019-02-28T13:49:11.778Z,3752
2019-02-28T13:50:10.016Z,3704
2019-02-28T13:51:13.322Z,3676
2019-02-28T13:52:08.597Z,3688
2019-02-28T13:53:23.325Z,3736
2019-02-28T13:54:12.956Z,3772